Ragan Village, North Carolina
Current Conditions -  °F | °C
As of 8:54 AM on Friday 24 Oct 2014 (Local Time) from KAKH Reporting Station
Clear Clear  
Wind Chill: 48°   Ceiling: Unl
Heat Index: 48°   Visibility: 10mi
Dew Point: 42°   Wind: 3mph
Humidity: 80%   Direction: 30°NNE
Pressure: 30.07"   Gusts: NA
Location:  35.2631°N, 81.1487°W
Report Text: KAKH 241254Z AUTO 03003KT 10SM CLR 09/06 A3007 RMK AO2 SLP186 T00890056
Loading
Personal Weather Stations






























Interactive Weather Map
Tropical Storm Tracking
New forecast layout! Learn more

10-Day Weather Forecast

Advertisements
Track Severe Weather on mobile